sensor_id;sensor_type;location;lat;lon;timestamp;temperature;humidity
17385;DHT22;8810;48.680;8.894;2022-08-21T00:01:24;14.60;99.90
17385;DHT22;8810;48.680;8.894;2022-08-21T00:03:51;14.60;99.90
17385;DHT22;8810;48.680;8.894;2022-08-21T00:06:18;14.60;99.90
17385;DHT22;8810;48.680;8.894;2022-08-21T00:08:45;14.60;99.90
17385;DHT22;8810;48.680;8.894;2022-08-21T00:11:13;14.60;99.90
17385;DHT22;8810;48.680;8.894;2022-08-21T00:13:41;14.50;99.90
17385;DHT22;8810;48.680;8.894;2022-08-21T00:16:08;14.50;99.90
17385;DHT22;8810;48.680;8.894;2022-08-21T00:18:38;14.50;99.90
17385;DHT22;8810;48.680;8.894;2022-08-21T00:21:06;14.40;99.90
17385;DHT22;8810;48.680;8.894;2022-08-21T00:23:33;14.40;99.90
17385;DHT22;8810;48.680;8.894;2022-08-21T00:26:00;14.40;99.90
17385;DHT22;8810;48.680;8.894;2022-08-21T00:28:27;14.40;99.90
17385;DHT22;8810;48.680;8.894;2022-08-21T00:30:56;14.40;99.90
17385;DHT22;8810;48.680;8.894;2022-08-21T00:33:23;14.30;99.90
17385;DHT22;8810;48.680;8.894;2022-08-21T00:35:50;14.30;99.90
17385;DHT22;8810;48.680;8.894;2022-08-21T00:38:17;14.30;99.90
17385;DHT22;8810;48.680;8.894;2022-08-21T00:40:47;14.30;99.90
17385;DHT22;8810;48.680;8.894;2022-08-21T00:43:20;14.20;99.90
17385;DHT22;8810;48.680;8.894;2022-08-21T00:45:48;14.10;99.90
17385;DHT22;8810;48.680;8.894;2022-08-21T00:48:16;14.00;99.90
17385;DHT22;8810;48.680;8.894;2022-08-21T00:50:46;13.90;99.90
17385;DHT22;8810;48.680;8.894;2022-08-21T00:53:15;13.90;99.90
17385;DHT22;8810;48.680;8.894;2022-08-21T00:55:43;13.90;99.90
17385;DHT22;8810;48.680;8.894;2022-08-21T00:58:13;13.90;99.90
17385;DHT22;8810;48.680;8.894;2022-08-21T01:00:43;13.80;99.90
17385;DHT22;8810;48.680;8.894;2022-08-21T01:03:12;13.80;99.90
17385;DHT22;8810;48.680;8.894;2022-08-21T01:05:41;13.90;99.90
17385;DHT22;8810;48.680;8.894;2022-08-21T01:08:09;13.90;99.90
17385;DHT22;8810;48.680;8.894;2022-08-21T01:10:37;13.90;99.90
17385;DHT22;8810;48.680;8.894;2022-08-21T01:13:05;13.90;99.90
17385;DHT22;8810;48.680;8.894;2022-08-21T01:15:36;13.90;99.90
17385;DHT22;8810;48.680;8.894;2022-08-21T01:18:04;13.90;99.90
17385;DHT22;8810;48.680;8.894;2022-08-21T01:20:34;13.80;99.90
17385;DHT22;8810;48.680;8.894;2022-08-21T01:23:05;13.80;99.90
17385;DHT22;8810;48.680;8.894;2022-08-21T01:25:32;13.80;99.90
17385;DHT22;8810;48.680;8.894;2022-08-21T01:28:04;13.80;99.90
17385;DHT22;8810;48.680;8.894;2022-08-21T01:30:34;13.80;99.90
17385;DHT22;8810;48.680;8.894;2022-08-21T01:33:02;13.70;99.90
17385;DHT22;8810;48.680;8.894;2022-08-21T01:35:29;13.70;99.90
17385;DHT22;8810;48.680;8.894;2022-08-21T01:37:56;13.70;99.90
17385;DHT22;8810;48.680;8.894;2022-08-21T01:40:24;13.60;99.90
17385;DHT22;8810;48.680;8.894;2022-08-21T01:42:51;13.60;99.90
17385;DHT22;8810;48.680;8.894;2022-08-21T01:45:19;13.50;99.90
17385;DHT22;8810;48.680;8.894;2022-08-21T01:47:46;13.40;99.90
17385;DHT22;8810;48.680;8.894;2022-08-21T01:50:15;13.40;99.90
17385;DHT22;8810;48.680;8.894;2022-08-21T01:52:43;13.40;99.90
17385;DHT22;8810;48.680;8.894;2022-08-21T01:55:12;13.40;99.90
17385;DHT22;8810;48.680;8.894;2022-08-21T01:57:40;13.30;99.90
17385;DHT22;8810;48.680;8.894;2022-08-21T02:00:10;13.30;99.90
17385;DHT22;8810;48.680;8.894;2022-08-21T02:02:38;13.30;99.90
17385;DHT22;8810;48.680;8.894;2022-08-21T02:05:06;13.20;99.90
17385;DHT22;8810;48.680;8.894;2022-08-21T02:07:36;13.20;99.90
17385;DHT22;8810;48.680;8.894;2022-08-21T02:10:05;13.20;99.90
17385;DHT22;8810;48.680;8.894;2022-08-21T02:12:32;13.10;99.90
17385;DHT22;8810;48.680;8.894;2022-08-21T02:15:01;13.00;99.90
17385;DHT22;8810;48.680;8.894;2022-08-21T02:17:28;13.00;99.90
17385;DHT22;8810;48.680;8.894;2022-08-21T02:20:03;12.90;99.90
17385;DHT22;8810;48.680;8.894;2022-08-21T02:22:31;12.80;99.90
17385;DHT22;8810;48.680;8.894;2022-08-21T02:24:58;12.80;99.90
17385;DHT22;8810;48.680;8.894;2022-08-21T02:27:25;12.80;99.90
17385;DHT22;8810;48.680;8.894;2022-08-21T02:29:52;12.80;99.90
17385;DHT22;8810;48.680;8.894;2022-08-21T02:32:20;12.80;99.90
17385;DHT22;8810;48.680;8.894;2022-08-21T02:34:47;12.80;99.90
17385;DHT22;8810;48.680;8.894;2022-08-21T02:37:15;12.80;99.90
17385;DHT22;8810;48.680;8.894;2022-08-21T02:39:42;12.80;99.90
17385;DHT22;8810;48.680;8.894;2022-08-21T02:42:10;12.70;99.90
17385;DHT22;8810;48.680;8.894;2022-08-21T02:44:37;12.70;99.90
17385;DHT22;8810;48.680;8.894;2022-08-21T02:47:04;12.70;99.90
17385;DHT22;8810;48.680;8.894;2022-08-21T02:49:32;12.70;99.90
17385;DHT22;8810;48.680;8.894;2022-08-21T02:51:59;12.70;99.90
17385;DHT22;8810;48.680;8.894;2022-08-21T02:54:26;12.70;99.90
17385;DHT22;8810;48.680;8.894;2022-08-21T02:56:53;12.70;99.90
17385;DHT22;8810;48.680;8.894;2022-08-21T02:59:20;12.60;99.90
17385;DHT22;8810;48.680;8.894;2022-08-21T03:01:47;12.50;99.90
17385;DHT22;8810;48.680;8.894;2022-08-21T03:04:14;12.40;99.90
17385;DHT22;8810;48.680;8.894;2022-08-21T03:06:42;12.30;99.90
17385;DHT22;8810;48.680;8.894;2022-08-21T03:09:09;12.20;99.90
17385;DHT22;8810;48.680;8.894;2022-08-21T03:11:36;12.20;99.90
17385;DHT22;8810;48.680;8.894;2022-08-21T03:14:03;12.20;99.90
17385;DHT22;8810;48.680;8.894;2022-08-21T03:16:31;12.30;99.90
17385;DHT22;8810;48.680;8.894;2022-08-21T03:18:58;12.30;99.90
17385;DHT22;8810;48.680;8.894;2022-08-21T03:21:25;12.30;99.90
17385;DHT22;8810;48.680;8.894;2022-08-21T03:23:53;12.30;99.90
17385;DHT22;8810;48.680;8.894;2022-08-21T03:26:20;12.30;99.90
17385;DHT22;8810;48.680;8.894;2022-08-21T03:28:47;12.30;99.90
17385;DHT22;8810;48.680;8.894;2022-08-21T03:31:14;12.20;99.90
17385;DHT22;8810;48.680;8.894;2022-08-21T03:33:41;12.20;99.90
17385;DHT22;8810;48.680;8.894;2022-08-21T03:36:10;12.20;99.90
17385;DHT22;8810;48.680;8.894;2022-08-21T03:38:37;12.20;99.90
17385;DHT22;8810;48.680;8.894;2022-08-21T03:41:07;12.20;99.90
17385;DHT22;8810;48.680;8.894;2022-08-21T03:43:34;12.20;99.90
17385;DHT22;8810;48.680;8.894;2022-08-21T03:46:02;12.20;99.90
17385;DHT22;8810;48.680;8.894;2022-08-21T03:48:30;12.20;99.90
17385;DHT22;8810;48.680;8.894;2022-08-21T03:50:57;12.30;99.90
17385;DHT22;8810;48.680;8.894;2022-08-21T03:53:24;12.30;99.90
17385;DHT22;8810;48.680;8.894;2022-08-21T03:55:51;12.30;99.90
17385;DHT22;8810;48.680;8.894;2022-08-21T03:58:23;12.20;99.90
17385;DHT22;8810;48.680;8.894;2022-08-21T04:00:52;12.20;99.90
17385;DHT22;8810;48.680;8.894;2022-08-21T04:03:20;12.10;99.90
17385;DHT22;8810;48.680;8.894;2022-08-21T04:05:47;12.10;99.90
17385;DHT22;8810;48.680;8.894;2022-08-21T04:08:15;12.00;99.90
17385;DHT22;8810;48.680;8.894;2022-08-21T04:10:46;12.00;99.90
17385;DHT22;8810;48.680;8.894;2022-08-21T04:13:13;12.00;99.90
17385;DHT22;8810;48.680;8.894;2022-08-21T04:15:42;12.00;99.90
17385;DHT22;8810;48.680;8.894;2022-08-21T04:18:10;12.00;99.90
17385;DHT22;8810;48.680;8.894;2022-08-21T04:20:37;12.00;99.90
17385;DHT22;8810;48.680;8.894;2022-08-21T04:23:05;11.90;99.90
17385;DHT22;8810;48.680;8.894;2022-08-21T04:25:31;11.90;99.90
17385;DHT22;8810;48.680;8.894;2022-08-21T04:27:58;11.80;99.90
17385;DHT22;8810;48.680;8.894;2022-08-21T04:30:27;11.80;99.90
17385;DHT22;8810;48.680;8.894;2022-08-21T04:32:56;11.80;99.90
17385;DHT22;8810;48.680;8.894;2022-08-21T04:35:25;11.70;99.90
17385;DHT22;8810;48.680;8.894;2022-08-21T04:37:52;11.70;99.90
17385;DHT22;8810;48.680;8.894;2022-08-21T04:40:20;11.70;99.90
17385;DHT22;8810;48.680;8.894;2022-08-21T04:42:49;11.60;99.90
17385;DHT22;8810;48.680;8.894;2022-08-21T04:45:18;11.60;99.90
17385;DHT22;8810;48.680;8.894;2022-08-21T04:47:49;11.70;99.90
17385;DHT22;8810;48.680;8.894;2022-08-21T04:50:18;11.70;99.90
17385;DHT22;8810;48.680;8.894;2022-08-21T04:52:45;11.70;99.90
17385;DHT22;8810;48.680;8.894;2022-08-21T04:55:12;11.70;99.90
17385;DHT22;8810;48.680;8.894;2022-08-21T04:57:40;11.70;99.90
17385;DHT22;8810;48.680;8.894;2022-08-21T05:00:08;11.70;99.90
17385;DHT22;8810;48.680;8.894;2022-08-21T05:02:36;11.70;99.90
17385;DHT22;8810;48.680;8.894;2022-08-21T05:05:04;11.70;99.90
17385;DHT22;8810;48.680;8.894;2022-08-21T05:07:32;11.70;99.90
17385;DHT22;8810;48.680;8.894;2022-08-21T05:10:00;11.70;99.90
17385;DHT22;8810;48.680;8.894;2022-08-21T05:12:28;11.70;99.90
17385;DHT22;8810;48.680;8.894;2022-08-21T05:14:55;11.70;99.90
17385;DHT22;8810;48.680;8.894;2022-08-21T05:17:22;11.80;99.90
17385;DHT22;8810;48.680;8.894;2022-08-21T05:19:49;11.80;99.90
17385;DHT22;8810;48.680;8.894;2022-08-21T05:22:19;11.80;99.90
17385;DHT22;8810;48.680;8.894;2022-08-21T05:24:48;11.90;99.90
17385;DHT22;8810;48.680;8.894;2022-08-21T05:27:14;11.90;99.90
17385;DHT22;8810;48.680;8.894;2022-08-21T05:29:41;11.90;99.90
17385;DHT22;8810;48.680;8.894;2022-08-21T05:32:09;11.90;99.90
17385;DHT22;8810;48.680;8.894;2022-08-21T05:34:37;12.00;99.90
17385;DHT22;8810;48.680;8.894;2022-08-21T05:37:04;12.00;99.90
17385;DHT22;8810;48.680;8.894;2022-08-21T05:39:31;12.10;99.90
17385;DHT22;8810;48.680;8.894;2022-08-21T05:42:00;12.20;99.90
17385;DHT22;8810;48.680;8.894;2022-08-21T05:44:27;12.30;99.90
17385;DHT22;8810;48.680;8.894;2022-08-21T05:46:54;12.40;99.90
17385;DHT22;8810;48.680;8.894;2022-08-21T05:49:21;12.50;99.90
17385;DHT22;8810;48.680;8.894;2022-08-21T05:51:47;12.50;99.90
17385;DHT22;8810;48.680;8.894;2022-08-21T05:54:14;12.60;99.90
17385;DHT22;8810;48.680;8.894;2022-08-21T05:56:41;12.70;99.90
17385;DHT22;8810;48.680;8.894;2022-08-21T05:59:11;12.80;99.90
17385;DHT22;8810;48.680;8.894;2022-08-21T06:01:38;12.80;99.90
17385;DHT22;8810;48.680;8.894;2022-08-21T06:04:06;12.90;99.90
17385;DHT22;8810;48.680;8.894;2022-08-21T06:06:33;13.00;99.90
17385;DHT22;8810;48.680;8.894;2022-08-21T06:09:00;13.10;99.90
17385;DHT22;8810;48.680;8.894;2022-08-21T06:11:27;13.20;99.90
17385;DHT22;8810;48.680;8.894;2022-08-21T06:13:54;13.30;99.90
17385;DHT22;8810;48.680;8.894;2022-08-21T06:16:22;13.40;99.90
17385;DHT22;8810;48.680;8.894;2022-08-21T06:18:49;13.50;99.90
17385;DHT22;8810;48.680;8.894;2022-08-21T06:21:16;13.50;99.90
17385;DHT22;8810;48.680;8.894;2022-08-21T06:23:43;13.70;99.90
17385;DHT22;8810;48.680;8.894;2022-08-21T06:26:12;13.80;99.90
17385;DHT22;8810;48.680;8.894;2022-08-21T06:28:40;13.90;99.90
17385;DHT22;8810;48.680;8.894;2022-08-21T06:31:15;14.00;99.90
17385;DHT22;8810;48.680;8.894;2022-08-21T06:33:44;14.10;99.90
17385;DHT22;8810;48.680;8.894;2022-08-21T06:36:12;14.20;99.90
17385;DHT22;8810;48.680;8.894;2022-08-21T06:38:39;14.30;99.90
17385;DHT22;8810;48.680;8.894;2022-08-21T06:41:07;14.50;99.90
17385;DHT22;8810;48.680;8.894;2022-08-21T06:43:34;14.60;99.90
17385;DHT22;8810;48.680;8.894;2022-08-21T06:46:01;14.70;99.90
17385;DHT22;8810;48.680;8.894;2022-08-21T06:48:27;14.80;99.90
17385;DHT22;8810;48.680;8.894;2022-08-21T06:50:56;14.90;99.90
17385;DHT22;8810;48.680;8.894;2022-08-21T06:53:23;15.10;99.90
17385;DHT22;8810;48.680;8.894;2022-08-21T06:55:50;15.30;99.90
17385;DHT22;8810;48.680;8.894;2022-08-21T06:58:17;15.50;99.90
17385;DHT22;8810;48.680;8.894;2022-08-21T07:00:47;15.80;99.90
17385;DHT22;8810;48.680;8.894;2022-08-21T07:03:20;16.10;99.90
17385;DHT22;8810;48.680;8.894;2022-08-21T07:05:47;16.40;99.90
17385;DHT22;8810;48.680;8.894;2022-08-21T07:08:16;16.70;99.90
17385;DHT22;8810;48.680;8.894;2022-08-21T07:10:44;17.00;99.90
17385;DHT22;8810;48.680;8.894;2022-08-21T07:13:11;17.30;99.90
17385;DHT22;8810;48.680;8.894;2022-08-21T07:15:38;17.50;99.90
17385;DHT22;8810;48.680;8.894;2022-08-21T07:18:05;17.80;99.90
17385;DHT22;8810;48.680;8.894;2022-08-21T07:20:32;18.10;99.90
17385;DHT22;8810;48.680;8.894;2022-08-21T07:23:01;18.40;99.90
17385;DHT22;8810;48.680;8.894;2022-08-21T07:25:30;18.70;99.90
17385;DHT22;8810;48.680;8.894;2022-08-21T07:27:58;18.90;99.90
17385;DHT22;8810;48.680;8.894;2022-08-21T07:30:25;19.30;99.90
17385;DHT22;8810;48.680;8.894;2022-08-21T07:32:52;19.60;99.90
17385;DHT22;8810;48.680;8.894;2022-08-21T07:35:20;19.90;99.90
17385;DHT22;8810;48.680;8.894;2022-08-21T07:37:48;20.20;99.90
17385;DHT22;8810;48.680;8.894;2022-08-21T07:40:15;20.40;99.90
17385;DHT22;8810;48.680;8.894;2022-08-21T07:42:46;20.70;99.90
17385;DHT22;8810;48.680;8.894;2022-08-21T07:45:16;21.00;99.90
17385;DHT22;8810;48.680;8.894;2022-08-21T07:47:43;21.30;99.90
17385;DHT22;8810;48.680;8.894;2022-08-21T07:50:10;21.60;99.90
17385;DHT22;8810;48.680;8.894;2022-08-21T07:52:38;21.90;99.90
17385;DHT22;8810;48.680;8.894;2022-08-21T07:55:06;22.20;99.90
17385;DHT22;8810;48.680;8.894;2022-08-21T07:57:33;22.30;99.90
17385;DHT22;8810;48.680;8.894;2022-08-21T08:00:02;22.40;99.90
17385;DHT22;8810;48.680;8.894;2022-08-21T08:02:30;22.50;99.90
17385;DHT22;8810;48.680;8.894;2022-08-21T08:04:59;22.50;99.90
17385;DHT22;8810;48.680;8.894;2022-08-21T08:07:26;22.70;99.90
17385;DHT22;8810;48.680;8.894;2022-08-21T08:09:53;22.90;99.90
17385;DHT22;8810;48.680;8.894;2022-08-21T08:12:20;23.00;99.90
17385;DHT22;8810;48.680;8.894;2022-08-21T08:14:48;23.10;99.90
17385;DHT22;8810;48.680;8.894;2022-08-21T08:17:16;23.30;99.90
17385;DHT22;8810;48.680;8.894;2022-08-21T08:19:47;23.50;99.90
17385;DHT22;8810;48.680;8.894;2022-08-21T08:22:15;23.70;99.90
17385;DHT22;8810;48.680;8.894;2022-08-21T08:24:42;23.90;99.90
17385;DHT22;8810;48.680;8.894;2022-08-21T08:27:09;24.10;99.90
17385;DHT22;8810;48.680;8.894;2022-08-21T08:29:36;24.30;99.30
17385;DHT22;8810;48.680;8.894;2022-08-21T08:32:04;24.50;99.20
17385;DHT22;8810;48.680;8.894;2022-08-21T08:34:34;24.70;99.10
17385;DHT22;8810;48.680;8.894;2022-08-21T08:37:01;24.90;98.00
17385;DHT22;8810;48.680;8.894;2022-08-21T08:39:28;25.00;95.80
17385;DHT22;8810;48.680;8.894;2022-08-21T08:41:59;25.00;95.80
17385;DHT22;8810;48.680;8.894;2022-08-21T08:44:28;25.20;94.90
17385;DHT22;8810;48.680;8.894;2022-08-21T08:46:56;25.40;95.20
17385;DHT22;8810;48.680;8.894;2022-08-21T08:49:27;25.60;94.80
17385;DHT22;8810;48.680;8.894;2022-08-21T08:52:00;25.80;94.60
17385;DHT22;8810;48.680;8.894;2022-08-21T08:54:30;25.90;94.00
17385;DHT22;8810;48.680;8.894;2022-08-21T08:56:58;26.10;94.40
17385;DHT22;8810;48.680;8.894;2022-08-21T08:59:33;26.20;93.70
17385;DHT22;8810;48.680;8.894;2022-08-21T09:02:02;26.40;92.90
17385;DHT22;8810;48.680;8.894;2022-08-21T09:04:30;26.30;93.30
17385;DHT22;8810;48.680;8.894;2022-08-21T09:07:05;26.50;92.40
17385;DHT22;8810;48.680;8.894;2022-08-21T09:09:46;26.50;92.30
17385;DHT22;8810;48.680;8.894;2022-08-21T09:12:22;26.50;91.60
17385;DHT22;8810;48.680;8.894;2022-08-21T09:14:58;26.60;91.50
17385;DHT22;8810;48.680;8.894;2022-08-21T09:17:36;26.60;90.80
17385;DHT22;8810;48.680;8.894;2022-08-21T09:20:14;26.50;91.30
17385;DHT22;8810;48.680;8.894;2022-08-21T09:22:54;26.50;91.00
17385;DHT22;8810;48.680;8.894;2022-08-21T09:25:26;26.80;91.10
17385;DHT22;8810;48.680;8.894;2022-08-21T09:27:54;26.80;90.20
17385;DHT22;8810;48.680;8.894;2022-08-21T09:30:25;27.00;90.70
17385;DHT22;8810;48.680;8.894;2022-08-21T09:32:53;27.20;90.40
17385;DHT22;8810;48.680;8.894;2022-08-21T09:35:21;27.50;90.30
17385;DHT22;8810;48.680;8.894;2022-08-21T09:37:54;27.80;90.40
17385;DHT22;8810;48.680;8.894;2022-08-21T09:40:32;27.90;88.50
17385;DHT22;8810;48.680;8.894;2022-08-21T09:43:01;27.90;88.90
17385;DHT22;8810;48.680;8.894;2022-08-21T09:45:29;28.00;88.40
17385;DHT22;8810;48.680;8.894;2022-08-21T09:48:07;28.20;87.10
17385;DHT22;8810;48.680;8.894;2022-08-21T09:50:34;28.40;86.40
17385;DHT22;8810;48.680;8.894;2022-08-21T09:53:02;28.60;86.20
17385;DHT22;8810;48.680;8.894;2022-08-21T09:55:32;28.80;85.50
17385;DHT22;8810;48.680;8.894;2022-08-21T09:58:19;29.00;84.70
17385;DHT22;8810;48.680;8.894;2022-08-21T10:00:57;29.20;83.80
17385;DHT22;8810;48.680;8.894;2022-08-21T10:03:24;29.20;83.40
17385;DHT22;8810;48.680;8.894;2022-08-21T10:05:55;29.30;82.90
17385;DHT22;8810;48.680;8.894;2022-08-21T10:08:25;29.30;81.20
17385;DHT22;8810;48.680;8.894;2022-08-21T10:10:56;29.00;80.70
17385;DHT22;8810;48.680;8.894;2022-08-21T10:13:37;29.00;80.50
17385;DHT22;8810;48.680;8.894;2022-08-21T10:16:15;29.10;80.40
17385;DHT22;8810;48.680;8.894;2022-08-21T10:18:56;29.10;80.60
17385;DHT22;8810;48.680;8.894;2022-08-21T10:21:33;28.90;79.60
17385;DHT22;8810;48.680;8.894;2022-08-21T10:24:07;28.90;79.40
17385;DHT22;8810;48.680;8.894;2022-08-21T10:26:45;28.80;80.20
17385;DHT22;8810;48.680;8.894;2022-08-21T10:29:30;29.10;80.30
17385;DHT22;8810;48.680;8.894;2022-08-21T10:32:05;29.50;79.40
17385;DHT22;8810;48.680;8.894;2022-08-21T10:34:44;29.90;77.90
17385;DHT22;8810;48.680;8.894;2022-08-21T10:37:23;29.90;76.40
17385;DHT22;8810;48.680;8.894;2022-08-21T10:40:02;29.90;75.90
17385;DHT22;8810;48.680;8.894;2022-08-21T10:42:36;29.80;75.00
17385;DHT22;8810;48.680;8.894;2022-08-21T10:45:13;29.80;74.60
17385;DHT22;8810;48.680;8.894;2022-08-21T10:47:46;29.60;75.10
17385;DHT22;8810;48.680;8.894;2022-08-21T10:50:22;29.60;75.60
17385;DHT22;8810;48.680;8.894;2022-08-21T10:53:04;29.60;74.60
17385;DHT22;8810;48.680;8.894;2022-08-21T10:55:36;29.70;74.80
17385;DHT22;8810;48.680;8.894;2022-08-21T10:58:10;29.80;75.30
17385;DHT22;8810;48.680;8.894;2022-08-21T11:00:41;29.90;74.60
17385;DHT22;8810;48.680;8.894;2022-08-21T11:03:13;29.80;73.10
17385;DHT22;8810;48.680;8.894;2022-08-21T11:05:48;29.70;73.00
17385;DHT22;8810;48.680;8.894;2022-08-21T11:08:22;29.90;73.20
17385;DHT22;8810;48.680;8.894;2022-08-21T11:10:53;30.00;71.00
17385;DHT22;8810;48.680;8.894;2022-08-21T11:13:27;30.10;71.90
17385;DHT22;8810;48.680;8.894;2022-08-21T11:16:07;30.30;71.40
17385;DHT22;8810;48.680;8.894;2022-08-21T11:18:39;30.50;71.40
17385;DHT22;8810;48.680;8.894;2022-08-21T11:21:19;30.80;70.10
17385;DHT22;8810;48.680;8.894;2022-08-21T11:23:56;30.80;69.90
17385;DHT22;8810;48.680;8.894;2022-08-21T11:26:32;30.80;71.10
17385;DHT22;8810;48.680;8.894;2022-08-21T11:29:06;30.90;69.80
17385;DHT22;8810;48.680;8.894;2022-08-21T11:31:42;31.20;69.40
17385;DHT22;8810;48.680;8.894;2022-08-21T11:34:24;31.40;68.70
17385;DHT22;8810;48.680;8.894;2022-08-21T11:36:59;31.50;67.00
17385;DHT22;8810;48.680;8.894;2022-08-21T11:39:35;31.60;67.70
17385;DHT22;8810;48.680;8.894;2022-08-21T11:42:15;31.50;66.20
17385;DHT22;8810;48.680;8.894;2022-08-21T11:44:49;31.40;66.40
17385;DHT22;8810;48.680;8.894;2022-08-21T11:47:23;31.30;66.30
17385;DHT22;8810;48.680;8.894;2022-08-21T11:50:05;31.10;66.00
17385;DHT22;8810;48.680;8.894;2022-08-21T11:52:43;30.80;66.20
17385;DHT22;8810;48.680;8.894;2022-08-21T11:55:14;30.80;66.90
17385;DHT22;8810;48.680;8.894;2022-08-21T11:57:49;30.60;67.80
17385;DHT22;8810;48.680;8.894;2022-08-21T12:00:21;30.20;67.10
17385;DHT22;8810;48.680;8.894;2022-08-21T12:02:51;29.80;69.30
17385;DHT22;8810;48.680;8.894;2022-08-21T12:05:25;29.40;69.20
17385;DHT22;8810;48.680;8.894;2022-08-21T12:08:02;29.00;71.10
17385;DHT22;8810;48.680;8.894;2022-08-21T12:10:37;28.80;71.30
17385;DHT22;8810;48.680;8.894;2022-08-21T12:13:20;28.60;71.80
17385;DHT22;8810;48.680;8.894;2022-08-21T12:15:48;28.50;70.50
17385;DHT22;8810;48.680;8.894;2022-08-21T12:18:27;28.60;71.20
17385;DHT22;8810;48.680;8.894;2022-08-21T12:21:01;28.80;69.60
17385;DHT22;8810;48.680;8.894;2022-08-21T12:23:31;28.90;69.90
17385;DHT22;8810;48.680;8.894;2022-08-21T12:26:25;28.90;69.30
17385;DHT22;8810;48.680;8.894;2022-08-21T12:29:12;28.60;68.80
17385;DHT22;8810;48.680;8.894;2022-08-21T12:31:52;28.30;70.30
17385;DHT22;8810;48.680;8.894;2022-08-21T12:34:20;28.10;70.40
17385;DHT22;8810;48.680;8.894;2022-08-21T12:36:52;27.90;72.10
17385;DHT22;8810;48.680;8.894;2022-08-21T12:39:24;27.80;73.70
17385;DHT22;8810;48.680;8.894;2022-08-21T12:41:56;27.60;71.30
17385;DHT22;8810;48.680;8.894;2022-08-21T12:44:30;27.30;71.00
17385;DHT22;8810;48.680;8.894;2022-08-21T12:47:04;27.20;73.10
17385;DHT22;8810;48.680;8.894;2022-08-21T12:49:34;27.10;72.70
17385;DHT22;8810;48.680;8.894;2022-08-21T12:52:07;27.00;72.60
17385;DHT22;8810;48.680;8.894;2022-08-21T12:54:39;27.00;72.30
17385;DHT22;8810;48.680;8.894;2022-08-21T12:57:08;26.70;70.80
17385;DHT22;8810;48.680;8.894;2022-08-21T12:59:39;26.70;71.50
17385;DHT22;8810;48.680;8.894;2022-08-21T13:02:16;26.50;70.90
17385;DHT22;8810;48.680;8.894;2022-08-21T13:04:46;26.50;72.60
17385;DHT22;8810;48.680;8.894;2022-08-21T13:07:19;26.80;72.30
17385;DHT22;8810;48.680;8.894;2022-08-21T13:09:50;27.30;74.00
17385;DHT22;8810;48.680;8.894;2022-08-21T13:12:20;27.90;70.30
17385;DHT22;8810;48.680;8.894;2022-08-21T13:14:51;28.30;70.00
17385;DHT22;8810;48.680;8.894;2022-08-21T13:17:20;28.70;69.20
17385;DHT22;8810;48.680;8.894;2022-08-21T13:19:54;29.10;68.80
17385;DHT22;8810;48.680;8.894;2022-08-21T13:22:21;29.50;70.10
17385;DHT22;8810;48.680;8.894;2022-08-21T13:24:48;29.80;70.10
17385;DHT22;8810;48.680;8.894;2022-08-21T13:27:20;29.80;69.10
17385;DHT22;8810;48.680;8.894;2022-08-21T13:30:00;29.90;68.50
17385;DHT22;8810;48.680;8.894;2022-08-21T13:32:28;29.90;67.10
17385;DHT22;8810;48.680;8.894;2022-08-21T13:34:57;29.90;67.70
17385;DHT22;8810;48.680;8.894;2022-08-21T13:37:26;30.00;67.50
17385;DHT22;8810;48.680;8.894;2022-08-21T13:39:54;30.00;66.50
17385;DHT22;8810;48.680;8.894;2022-08-21T13:42:21;30.00;67.00
17385;DHT22;8810;48.680;8.894;2022-08-21T13:44:52;30.10;66.20
17385;DHT22;8810;48.680;8.894;2022-08-21T13:47:20;30.10;66.50
17385;DHT22;8810;48.680;8.894;2022-08-21T13:49:49;30.30;66.30
17385;DHT22;8810;48.680;8.894;2022-08-21T13:52:23;30.40;66.80
17385;DHT22;8810;48.680;8.894;2022-08-21T13:54:55;30.60;68.10
17385;DHT22;8810;48.680;8.894;2022-08-21T13:57:27;30.70;68.80
17385;DHT22;8810;48.680;8.894;2022-08-21T14:02:50;30.70;67.90
17385;DHT22;8810;48.680;8.894;2022-08-21T14:05:21;30.20;67.50
17385;DHT22;8810;48.680;8.894;2022-08-21T14:07:50;30.00;68.00
17385;DHT22;8810;48.680;8.894;2022-08-21T14:10:20;29.80;69.30
17385;DHT22;8810;48.680;8.894;2022-08-21T14:12:50;29.60;68.50
17385;DHT22;8810;48.680;8.894;2022-08-21T14:15:22;29.30;68.70
17385;DHT22;8810;48.680;8.894;2022-08-21T14:17:51;29.00;69.40
17385;DHT22;8810;48.680;8.894;2022-08-21T14:20:30;28.80;70.80
17385;DHT22;8810;48.680;8.894;2022-08-21T14:22:58;28.60;70.30
17385;DHT22;8810;48.680;8.894;2022-08-21T14:25:31;28.70;70.50
17385;DHT22;8810;48.680;8.894;2022-08-21T14:28:09;28.90;71.50
17385;DHT22;8810;48.680;8.894;2022-08-21T14:30:40;29.20;70.20
17385;DHT22;8810;48.680;8.894;2022-08-21T14:33:11;29.40;69.80
17385;DHT22;8810;48.680;8.894;2022-08-21T14:35:39;29.70;69.60
17385;DHT22;8810;48.680;8.894;2022-08-21T14:38:12;29.90;68.60
17385;DHT22;8810;48.680;8.894;2022-08-21T14:40:48;29.90;69.30
17385;DHT22;8810;48.680;8.894;2022-08-21T14:43:16;29.80;68.90
17385;DHT22;8810;48.680;8.894;2022-08-21T14:45:44;29.90;68.90
17385;DHT22;8810;48.680;8.894;2022-08-21T14:48:13;30.00;68.50
17385;DHT22;8810;48.680;8.894;2022-08-21T14:50:41;30.00;68.50
17385;DHT22;8810;48.680;8.894;2022-08-21T14:53:08;30.00;68.30
17385;DHT22;8810;48.680;8.894;2022-08-21T14:55:35;30.00;68.60
17385;DHT22;8810;48.680;8.894;2022-08-21T14:58:23;30.10;68.40
17385;DHT22;8810;48.680;8.894;2022-08-21T15:00:50;30.20;68.70
17385;DHT22;8810;48.680;8.894;2022-08-21T15:03:19;30.30;67.80
17385;DHT22;8810;48.680;8.894;2022-08-21T15:05:47;30.40;67.20
17385;DHT22;8810;48.680;8.894;2022-08-21T15:08:14;30.40;67.60
17385;DHT22;8810;48.680;8.894;2022-08-21T15:10:41;30.40;67.30
17385;DHT22;8810;48.680;8.894;2022-08-21T15:13:08;30.40;66.80
17385;DHT22;8810;48.680;8.894;2022-08-21T15:15:39;30.30;66.50
17385;DHT22;8810;48.680;8.894;2022-08-21T15:18:07;30.00;67.00
17385;DHT22;8810;48.680;8.894;2022-08-21T15:20:35;29.80;68.50
17385;DHT22;8810;48.680;8.894;2022-08-21T15:23:03;29.80;68.30
17385;DHT22;8810;48.680;8.894;2022-08-21T15:25:30;29.70;68.00
17385;DHT22;8810;48.680;8.894;2022-08-21T15:27:58;29.70;69.10
17385;DHT22;8810;48.680;8.894;2022-08-21T15:30:26;29.80;68.70
17385;DHT22;8810;48.680;8.894;2022-08-21T15:32:53;29.80;67.70
17385;DHT22;8810;48.680;8.894;2022-08-21T15:35:20;29.60;66.80
17385;DHT22;8810;48.680;8.894;2022-08-21T15:37:48;29.70;67.90
17385;DHT22;8810;48.680;8.894;2022-08-21T15:40:16;29.80;69.10
17385;DHT22;8810;48.680;8.894;2022-08-21T15:42:43;29.80;69.00
17385;DHT22;8810;48.680;8.894;2022-08-21T15:45:11;29.90;68.10
17385;DHT22;8810;48.680;8.894;2022-08-21T15:47:41;30.10;68.40
17385;DHT22;8810;48.680;8.894;2022-08-21T15:50:10;30.10;67.50
17385;DHT22;8810;48.680;8.894;2022-08-21T15:52:37;30.10;66.60
17385;DHT22;8810;48.680;8.894;2022-08-21T15:55:07;30.10;67.00
17385;DHT22;8810;48.680;8.894;2022-08-21T15:57:35;30.10;66.80
17385;DHT22;8810;48.680;8.894;2022-08-21T16:00:06;30.10;66.80
17385;DHT22;8810;48.680;8.894;2022-08-21T16:02:39;30.00;66.60
17385;DHT22;8810;48.680;8.894;2022-08-21T16:05:06;29.90;66.80